Time;durP1;ratioP1;P1;durP2;ratioP2;P2;SDS_P1;SDS_P2;PMS_P1;PMS_P2;Temp;Humidity;BMP_temperature;BMP_pressure;BME280_temperature;BME280_humidity;BME280_pressure;Samples;Min_cycle;Max_cycle;Signal;HPM_P1;HPM_P2
2022/09/21 00:05:02;;;;;;;2.30;1.30;;;21.10;71.50;;;;;;214652;1298;22579;-48
2022/09/21 00:10:07;;;;;;;3.90;1.90;;;21.10;71.70;;;;;;215108;1299;24736;-48
2022/09/21 00:15:12;;;;;;;4.40;1.50;;;21.10;71.60;;;;;;215024;1297;22758;-48
2022/09/21 00:20:15;;;;;;;4.60;1.70;;;21.10;71.50;;;;;;215115;1299;22669;-48
2022/09/21 00:25:20;;;;;;;3.70;1.70;;;21.00;71.50;;;;;;215074;1297;22566;-50
2022/09/21 00:30:23;;;;;;;4.70;2.10;;;21.00;71.50;;;;;;215137;1299;22757;-48
2022/09/21 00:35:27;;;;;;;3.90;1.70;;;21.00;71.50;;;;;;215130;1297;25653;-47
2022/09/21 00:40:31;;;;;;;3.90;1.80;;;21.00;71.60;;;;;;215229;1300;22601;-50
2022/09/21 00:45:34;;;;;;;3.40;1.70;;;20.90;71.70;;;;;;215317;1296;24334;-49
2022/09/21 00:50:47;;;;;;;3.60;1.60;;;20.90;71.70;;;;;;215291;1296;24325;-53
2022/09/21 00:55:54;;;;;;;5.50;1.60;;;20.90;71.70;;;;;;215094;1299;22596;-49
2022/09/21 01:01:00;;;;;;;3.10;1.50;;;20.90;72.30;;;;;;214884;1298;22625;-51
2022/09/21 01:06:04;;;;;;;3.00;1.50;;;20.90;71.90;;;;;;215001;1297;24269;-48
2022/09/21 01:11:07;;;;;;;3.30;1.40;;;20.80;72.10;;;;;;214688;1297;25236;-49
2022/09/21 01:16:24;;;;;;;4.40;1.60;;;20.80;71.80;;;;;;214740;1297;22697;-49
2022/09/21 01:21:38;;;;;;;2.30;1.30;;;20.80;72.00;;;;;;214914;1299;344555;-48
2022/09/21 01:27:07;;;;;;;2.30;1.30;;;20.80;71.90;;;;;;215070;1297;22578;-47
2022/09/21 01:32:21;;;;;;;3.50;1.60;;;20.80;72.00;;;;;;214943;1299;22566;-54
2022/09/21 01:37:48;;;;;;;3.90;1.70;;;20.70;72.00;;;;;;215061;1297;22570;-51
2022/09/21 01:42:54;;;;;;;2.80;1.50;;;20.70;72.00;;;;;;214940;1297;22594;-52
2022/09/21 01:48:00;;;;;;;2.70;1.70;;;20.70;72.00;;;;;;214947;1299;25290;-51
2022/09/21 01:53:15;;;;;;;2.90;1.50;;;20.70;72.00;;;;;;214864;1299;24436;-48
2022/09/21 01:58:34;;;;;;;3.90;1.50;;;20.70;71.60;;;;;;214888;1297;25476;-49
2022/09/21 02:03:51;;;;;;;2.90;1.40;;;20.60;72.20;;;;;;214900;1296;22633;-51
2022/09/21 02:08:56;;;;;;;5.10;1.60;;;20.60;71.90;;;;;;215332;1296;22588;-54
2022/09/21 02:13:59;;;;;;;2.90;1.20;;;20.60;71.80;;;;;;215288;1296;22603;-48
2022/09/21 02:19:30;;;;;;;3.70;1.60;;;20.60;71.90;;;;;;214996;1297;24311;-53
2022/09/21 02:24:43;;;;;;;3.50;1.60;;;20.60;71.90;;;;;;215007;1297;22595;-52
2022/09/21 02:29:59;;;;;;;3.00;1.30;;;20.60;71.90;;;;;;214810;1297;25463;-50
2022/09/21 02:35:21;;;;;;;3.50;1.30;;;20.60;71.90;;;;;;215049;1299;22649;-52
2022/09/21 02:40:35;;;;;;;2.70;1.30;;;20.60;71.80;;;;;;214977;1296;22604;-53
2022/09/21 02:45:46;;;;;;;3.10;1.50;;;20.60;71.80;;;;;;215205;1296;25693;-47
2022/09/21 02:50:53;;;;;;;3.10;1.70;;;20.60;72.10;;;;;;215118;1296;23150;-52
2022/09/21 02:56:05;;;;;;;3.50;1.50;;;20.50;71.90;;;;;;215110;1297;24339;-53
2022/09/21 03:01:11;;;;;;;2.30;1.20;;;20.50;71.80;;;;;;214598;1299;22591;-49
2022/09/21 03:06:15;;;;;;;3.10;1.40;;;20.50;71.80;;;;;;215322;1297;24325;-53
2022/09/21 03:11:19;;;;;;;3.20;1.60;;;20.50;71.90;;;;;;214970;1299;22748;-48
2022/09/21 03:16:24;;;;;;;2.90;1.50;;;20.50;71.80;;;;;;214692;1299;22720;-51
2022/09/21 03:21:28;;;;;;;3.70;1.50;;;20.50;72.20;;;;;;214954;1299;22586;-50
2022/09/21 03:26:32;;;;;;;3.60;1.60;;;20.40;71.80;;;;;;214783;1299;26121;-50
2022/09/21 03:31:36;;;;;;;2.80;1.50;;;20.50;71.90;;;;;;215053;1299;25280;-51
2022/09/21 03:36:40;;;;;;;3.20;1.70;;;20.40;71.80;;;;;;214545;1299;23944;-50
2022/09/21 03:41:44;;;;;;;3.00;1.30;;;20.40;72.10;;;;;;214999;1299;23985;-51
2022/09/21 03:46:48;;;;;;;3.20;1.40;;;20.40;72.10;;;;;;215270;1299;22617;-51
2022/09/21 03:51:52;;;;;;;2.00;1.10;;;20.40;71.90;;;;;;214757;1299;22570;-52
2022/09/21 03:56:55;;;;;;;5.00;1.90;;;20.40;71.80;;;;;;214922;1299;24351;-48
2022/09/21 04:01:59;;;;;;;2.30;1.40;;;20.40;71.80;;;;;;214826;1297;23083;-51
2022/09/21 04:07:03;;;;;;;3.00;1.70;;;20.40;71.80;;;;;;215197;1298;22867;-48
2022/09/21 04:12:07;;;;;;;4.00;2.10;;;20.40;71.80;;;;;;215324;1300;22592;-50
2022/09/21 04:17:10;;;;;;;1.90;1.10;;;20.40;72.10;;;;;;214692;1299;25290;-50
2022/09/21 04:22:14;;;;;;;2.40;1.40;;;20.40;71.80;;;;;;215254;1300;22621;-50
2022/09/21 04:27:18;;;;;;;3.40;1.60;;;20.40;71.90;;;;;;215008;1299;22581;-52
2022/09/21 04:32:24;;;;;;;3.00;1.70;;;20.30;71.80;;;;;;214905;1298;23105;-48
2022/09/21 04:37:27;;;;;;;2.30;1.40;;;20.30;71.70;;;;;;215240;1298;22586;-50
2022/09/21 04:42:31;;;;;;;2.50;1.30;;;20.30;71.70;;;;;;215076;1299;24313;-48
2022/09/21 04:47:34;;;;;;;3.40;1.20;;;20.30;71.70;;;;;;215315;1298;24345;-52
2022/09/21 04:52:38;;;;;;;2.50;1.50;;;20.30;71.70;;;;;;215147;1296;25356;-51
2022/09/21 04:57:43;;;;;;;4.20;1.50;;;20.30;71.40;;;;;;214972;1298;22581;-49
2022/09/21 05:02:46;;;;;;;3.40;1.50;;;20.30;71.80;;;;;;214916;1299;22598;-49
2022/09/21 05:07:50;;;;;;;2.90;1.20;;;20.30;71.80;;;;;;215217;1297;22598;-48
2022/09/21 05:12:53;;;;;;;2.60;1.40;;;20.20;71.80;;;;;;215157;1299;22593;-54
2022/09/21 05:17:57;;;;;;;2.50;1.40;;;20.20;71.80;;;;;;214948;1296;25391;-53
2022/09/21 05:23:01;;;;;;;2.60;1.20;;;20.20;72.10;;;;;;214873;1296;22596;-52
2022/09/21 05:28:18;;;;;;;3.00;1.40;;;20.20;71.80;;;;;;215276;1296;24345;-54
2022/09/21 05:33:27;;;;;;;2.10;1.20;;;20.20;71.70;;;;;;215088;1299;25416;-53
2022/09/21 05:38:32;;;;;;;2.90;1.20;;;20.40;72.00;;;;;;214912;1296;25370;-49
2022/09/21 05:43:36;;;;;;;2.80;1.40;;;20.60;71.40;;;;;;215091;1297;22662;-51
2022/09/21 05:48:46;;;;;;;2.80;1.40;;;20.60;70.90;;;;;;215308;1296;22606;-52
2022/09/21 05:54:20;;;;;;;5.00;1.80;;;20.70;70.40;;;;;;215263;1296;25290;-49
2022/09/21 05:59:40;;;;;;;2.70;1.40;;;20.90;70.20;;;;;;215192;1296;22725;-51
2022/09/21 06:05:04;;;;;;;7.10;1.60;;;21.00;70.40;;;;;;214945;1299;22698;-49
2022/09/21 06:10:19;;;;;;;5.20;1.40;;;21.10;70.80;;;;;;214757;1296;22609;-49
2022/09/21 06:15:37;;;;;;;11.90;2.10;;;21.20;70.80;;;;;;214726;1297;24257;-51
2022/09/21 06:20:44;;;;;;;8.70;1.70;;;21.20;70.40;;;;;;214840;1299;25444;-52
2022/09/21 06:25:52;;;;;;;8.10;1.50;;;21.20;71.00;;;;;;214965;1297;22576;-51
2022/09/21 06:31:01;;;;;;;6.00;1.80;;;21.20;71.00;;;;;;214875;1297;22786;-48
2022/09/21 06:36:06;;;;;;;5.20;1.70;;;21.10;71.20;;;;;;214808;1297;24022;-54
2022/09/21 06:41:13;;;;;;;12.50;1.90;;;21.10;72.30;;;;;;214798;1297;23221;-49
2022/09/21 06:46:24;;;;;;;6.10;1.50;;;21.20;71.60;;;;;;214970;1299;22756;-48
2022/09/21 06:51:28;;;;;;;8.50;1.60;;;21.20;71.60;;;;;;215064;1296;22581;-50
2022/09/21 06:56:32;;;;;;;6.40;1.70;;;21.20;72.10;;;;;;214796;1299;22592;-50
2022/09/21 07:01:40;;;;;;;5.90;2.10;;;21.10;72.20;;;;;;214861;1299;24275;-47
2022/09/21 07:06:44;;;;;;;8.20;2.00;;;21.10;72.20;;;;;;219271;1299;24280;-47
2022/09/21 07:11:48;;;;;;;7.30;1.70;;;21.10;71.90;;;;;;215168;1296;22590;-50
2022/09/21 07:16:52;;;;;;;6.60;1.90;;;21.10;71.80;;;;;;214970;1296;24452;-49
2022/09/21 07:21:56;;;;;;;8.60;1.80;;;21.10;71.80;;;;;;214968;1299;22751;-48
2022/09/21 07:27:02;;;;;;;11.20;1.90;;;21.00;71.70;;;;;;215060;1297;22847;-49
2022/09/21 07:32:05;;;;;;;5.30;1.60;;;21.10;71.80;;;;;;214902;1299;22598;-48
2022/09/21 07:37:09;;;;;;;5.60;1.70;;;21.00;71.70;;;;;;214416;1297;22575;-48
2022/09/21 07:42:13;;;;;;;2.90;1.50;;;21.10;71.80;;;;;;215017;1296;25337;-48
2022/09/21 07:47:16;;;;;;;4.10;1.20;;;21.10;71.90;;;;;;214879;1296;25225;-47
2022/09/21 07:52:21;;;;;;;5.20;1.40;;;21.00;71.40;;;;;;214815;1296;22567;-49
2022/09/21 08:02:46;;;;;;;4.10;1.60;;;21.00;71.20;;;;;;214896;1296;22623;-50
2022/09/21 08:07:55;;;;;;;3.60;1.80;;;21.00;71.50;;;;;;214653;1296;22569;-48
2022/09/21 08:12:58;;;;;;;5.00;1.80;;;20.80;71.60;;;;;;214755;1297;22591;-47
2022/09/21 08:18:06;;;;;;;4.10;1.60;;;20.80;72.00;;;;;;214503;1299;24050;-47
2022/09/21 08:23:10;;;;;;;4.10;1.80;;;20.80;72.10;;;;;;214992;1299;23944;-48
2022/09/21 08:28:13;;;;;;;3.00;1.50;;;20.70;72.40;;;;;;215019;1296;24260;-49
2022/09/21 08:33:17;;;;;;;6.50;1.60;;;20.80;71.80;;;;;;215089;1299;24511;-50
2022/09/21 08:38:21;;;;;;;4.20;2.20;;;20.70;71.50;;;;;;214991;1296;23676;-51
2022/09/21 08:43:33;;;;;;;3.90;1.60;;;20.70;72.00;;;;;;214972;1296;22598;-48
2022/09/21 08:48:46;;;;;;;3.20;1.80;;;20.80;71.60;;;;;;215355;1296;24303;-45
2022/09/21 08:53:54;;;;;;;4.80;1.50;;;20.80;71.60;;;;;;215031;1296;22579;-50
2022/09/21 08:58:58;;;;;;;5.00;1.80;;;20.90;71.60;;;;;;215010;1296;22608;-48
2022/09/21 09:04:16;;;;;;;3.40;1.80;;;20.90;71.70;;;;;;214645;1297;22595;-48
2022/09/21 09:09:22;;;;;;;5.90;1.70;;;20.90;71.70;;;;;;214903;1297;25318;-50
2022/09/21 09:14:48;;;;;;;3.20;1.80;;;20.90;71.80;;;;;;214899;1297;22585;-50
2022/09/21 09:20:12;;;;;;;7.20;2.20;;;20.90;72.30;;;;;;215022;1296;25286;-48
2022/09/21 09:25:28;;;;;;;2.90;1.70;;;20.80;72.30;;;;;;214960;1297;22563;-55
2022/09/21 09:30:34;;;;;;;4.20;2.30;;;20.80;72.40;;;;;;215107;1299;23942;-47
2022/09/21 09:35:48;;;;;;;5.50;2.00;;;20.90;72.60;;;;;;214903;1299;22593;-50
2022/09/21 09:40:54;;;;;;;3.10;1.70;;;20.90;72.30;;;;;;214779;1297;23944;-50
2022/09/21 09:46:13;;;;;;;3.30;1.90;;;21.00;72.40;;;;;;214980;1297;22597;-46
2022/09/21 09:51:18;;;;;;;5.80;2.90;;;21.00;72.00;;;;;;214769;1297;22606;-49
2022/09/21 09:56:22;;;;;;;4.30;2.40;;;21.10;71.60;;;;;;214816;1299;25382;-50
2022/09/21 10:01:45;;;;;;;6.50;2.60;;;21.20;71.50;;;;;;214876;1296;22582;-49
2022/09/21 10:06:48;;;;;;;4.00;2.60;;;21.20;71.40;;;;;;214626;1299;22563;-50
2022/09/21 10:11:57;;;;;;;3.70;2.20;;;21.20;71.40;;;;;;214932;1296;22612;-50
2022/09/21 10:17:06;;;;;;;5.00;2.60;;;21.20;71.30;;;;;;214912;1297;22606;-47
2022/09/21 10:22:16;;;;;;;5.10;2.70;;;21.20;71.50;;;;;;214905;1299;22573;-53
2022/09/21 10:27:27;;;;;;;3.80;2.20;;;21.30;71.40;;;;;;214826;1297;22551;-48
2022/09/21 10:32:31;;;;;;;5.70;2.40;;;21.20;71.50;;;;;;215049;1296;25396;-49
2022/09/21 10:37:39;;;;;;;9.00;2.70;;;21.30;71.70;;;;;;214956;1296;25283;-50
2022/09/21 10:42:44;;;;;;;6.00;2.80;;;21.30;71.40;;;;;;215025;1296;23961;-47
2022/09/21 10:48:10;;;;;;;6.50;2.60;;;21.30;72.10;;;;;;214958;1299;22635;-47
2022/09/21 10:53:35;;;;;;;5.80;2.40;;;21.30;72.10;;;;;;214927;1296;23279;-47
2022/09/21 10:58:38;;;;;;;5.40;2.40;;;21.40;72.20;;;;;;214871;1299;24273;-48
2022/09/21 11:04:01;;;;;;;6.00;2.40;;;21.40;72.00;;;;;;214837;1296;22585;-46
2022/09/21 11:09:17;;;;;;;4.40;2.40;;;21.50;72.40;;;;;;214774;1296;25435;-47
2022/09/21 11:14:42;;;;;;;4.90;2.10;;;21.50;73.40;;;;;;214749;1299;22659;-51
2022/09/21 11:19:50;;;;;;;3.00;2.10;;;21.50;74.10;;;;;;214688;1299;22735;-50
2022/09/21 11:25:22;;;;;;;5.60;2.00;;;21.60;72.90;;;;;;215142;1296;24269;-49
2022/09/21 11:30:30;;;;;;;;;;;21.60;73.10;;;;;;214953;1299;22563;-47
2022/09/21 11:35:52;;;;;;;4.80;2.50;;;21.60;72.50;;;;;;214867;1299;26622;-47
2022/09/21 11:41:11;;;;;;;5.90;3.00;;;21.70;72.10;;;;;;214937;1296;26589;-49
2022/09/21 11:46:29;;;;;;;4.50;2.70;;;21.70;72.20;;;;;;215031;1296;22554;-48
2022/09/21 11:51:41;;;;;;;4.00;2.10;;;21.70;72.10;;;;;;214918;1296;22715;-48
2022/09/21 11:56:54;;;;;;;3.60;2.00;;;21.80;72.00;;;;;;214920;1296;22592;-48
2022/09/21 12:02:25;;;;;;;3.90;2.30;;;21.80;72.10;;;;;;215155;1296;22756;-51
2022/09/21 12:07:38;;;;;;;;;;;21.80;72.00;;;;;;215207;1297;25452;-48
2022/09/21 12:12:50;;;;;;;5.00;2.00;;;21.70;71.70;;;;;;214799;1299;25348;-47
2022/09/21 12:18:10;;;;;;;3.30;2.20;;;21.70;72.00;;;;;;215116;1296;24267;-48
2022/09/21 12:23:26;;;;;;;2.90;1.80;;;21.70;72.00;;;;;;214721;1297;22748;-48
2022/09/21 12:28:36;;;;;;;3.80;2.20;;;21.80;72.00;;;;;;214712;1299;25291;-48
2022/09/21 12:33:52;;;;;;;4.20;2.20;;;21.80;71.60;;;;;;214983;1299;25410;-49
2022/09/21 12:39:06;;;;;;;7.20;2.40;;;21.90;71.50;;;;;;214877;1299;24310;-45
2022/09/21 12:44:22;;;;;;;4.70;2.40;;;21.90;71.50;;;;;;214997;1296;24316;-47
2022/09/21 12:49:31;;;;;;;4.90;2.20;;;21.90;71.50;;;;;;214709;1299;25396;-46
2022/09/21 12:54:52;;;;;;;6.60;2.40;;;21.80;71.70;;;;;;215043;1296;25391;-48
2022/09/21 13:00:13;;;;;;;4.60;1.90;;;21.80;71.80;;;;;;215330;1297;22787;-51
2022/09/21 13:05:48;;;;;;;4.70;2.10;;;21.80;71.50;;;;;;215444;1296;25277;-48
2022/09/21 13:10:54;;;;;;;3.00;1.90;;;21.70;71.50;;;;;;215492;1300;22569;-50
2022/09/21 13:15:59;;;;;;;6.20;2.40;;;21.70;71.30;;;;;;214882;1296;22791;-46
2022/09/21 13:21:22;;;;;;;3.70;2.40;;;21.70;71.10;;;;;;214988;1297;409023;-45
2022/09/21 13:26:49;;;;;;;4.60;2.30;;;21.60;71.10;;;;;;215003;1299;22631;-48
2022/09/21 13:31:59;;;;;;;3.90;2.40;;;21.60;70.70;;;;;;215111;1296;22573;-49
2022/09/21 13:37:28;;;;;;;5.50;2.50;;;21.50;70.40;;;;;;214765;1297;22760;-47
2022/09/21 13:42:35;;;;;;;;;;;21.50;70.20;;;;;;215132;1296;22580;-47
2022/09/21 13:47:41;;;;;;;3.90;2.20;;;21.50;69.80;;;;;;215022;1297;24266;-49
2022/09/21 13:52:51;;;;;;;5.20;2.10;;;21.50;69.70;;;;;;215217;1296;23082;-50
2022/09/21 13:58:06;;;;;;;3.10;1.90;;;21.50;69.40;;;;;;215124;1299;22676;-48
2022/09/21 14:03:31;;;;;;;3.60;2.30;;;21.50;69.00;;;;;;215107;1299;25456;-48
2022/09/21 14:08:39;;;;;;;3.40;2.40;;;21.50;68.90;;;;;;215169;1299;22788;-47
2022/09/21 14:13:59;;;;;;;2.90;1.80;;;21.50;68.70;;;;;;214951;1297;23378;-47
2022/09/21 14:19:28;;;;;;;4.40;2.10;;;21.50;68.00;;;;;;215253;1297;22604;-51
2022/09/21 14:24:35;;;;;;;3.30;2.00;;;21.40;68.20;;;;;;214875;1299;25290;-46
2022/09/21 14:29:54;;;;;;;5.10;2.20;;;21.40;67.90;;;;;;215153;1297;22743;-47
2022/09/21 14:35:09;;;;;;;3.00;1.80;;;21.40;67.80;;;;;;215087;1299;22702;-50
2022/09/21 14:40:20;;;;;;;3.10;1.90;;;21.40;68.00;;;;;;215057;1296;22563;-47
2022/09/21 14:45:49;;;;;;;6.00;3.00;;;21.40;67.50;;;;;;215088;1296;25416;-46
2022/09/21 14:50:55;;;;;;;3.00;1.70;;;21.40;67.70;;;;;;215277;1296;25536;-47
2022/09/21 14:56:29;;;;;;;2.80;1.90;;;21.40;67.60;;;;;;215064;1299;25456;-46
2022/09/21 15:01:35;;;;;;;4.10;2.00;;;21.40;67.10;;;;;;215020;1300;22584;-49
2022/09/21 15:12:37;;;;;;;3.60;2.10;;;21.30;66.70;;;;;;214822;1299;24261;-48
2022/09/21 15:17:59;;;;;;;3.40;1.90;;;21.30;66.70;;;;;;215324;1296;22583;-49
2022/09/21 15:23:18;;;;;;;3.00;2.10;;;21.30;66.70;;;;;;215017;1297;25387;-45
2022/09/21 15:28:25;;;;;;;3.40;2.00;;;21.30;66.70;;;;;;215347;1297;23189;-47
2022/09/21 15:33:32;;;;;;;2.90;1.90;;;21.30;66.50;;;;;;214961;1300;24467;-49
2022/09/21 15:38:37;;;;;;;2.30;1.60;;;21.30;66.40;;;;;;215350;1299;24324;-46
2022/09/21 15:43:56;;;;;;;3.00;1.90;;;21.30;66.40;;;;;;215008;1299;24019;-45
2022/09/21 15:49:00;;;;;;;3.10;1.80;;;21.30;66.30;;;;;;215014;1299;22592;-48
2022/09/21 15:54:43;;;;;;;2.80;2.00;;;21.20;66.20;;;;;;214804;1297;24903;-49
2022/09/21 15:59:48;;;;;;;;;;;21.20;66.10;;;;;;214978;1300;22713;-46
2022/09/21 16:05:05;;;;;;;3.10;2.00;;;21.20;66.10;;;;;;214852;1299;27201;-46
2022/09/21 16:10:29;;;;;;;3.70;1.70;;;21.20;66.30;;;;;;214841;1296;22756;-48
2022/09/21 16:15:35;;;;;;;3.20;2.00;;;21.20;66.00;;;;;;215018;1300;22769;-47
2022/09/21 16:20:52;;;;;;;2.60;1.70;;;21.20;66.00;;;;;;214908;1299;24310;-47
2022/09/21 16:26:05;;;;;;;2.60;1.80;;;21.20;65.90;;;;;;214667;1297;24255;-48
2022/09/21 16:31:23;;;;;;;3.80;2.00;;;21.10;65.80;;;;;;214980;1296;24256;-46
2022/09/21 16:36:35;;;;;;;3.90;2.10;;;21.10;65.80;;;;;;214662;1299;23967;-45
2022/09/21 16:41:47;;;;;;;3.60;1.90;;;21.10;66.00;;;;;;214789;1299;22938;-49
2022/09/21 16:47:24;;;;;;;2.40;1.70;;;21.10;65.60;;;;;;214801;1295;25493;-48
2022/09/21 16:52:29;;;;;;;4.80;2.60;;;21.00;65.50;;;;;;214851;1297;22732;-49
2022/09/21 16:57:36;;;;;;;2.80;1.80;;;21.00;65.40;;;;;;214874;1297;22727;-47
2022/09/21 17:02:44;;;;;;;3.00;1.70;;;21.00;65.30;;;;;;214918;1300;22589;-45
2022/09/21 17:07:56;;;;;;;2.60;1.50;;;21.00;65.30;;;;;;214763;1297;22631;-47
2022/09/21 17:13:03;;;;;;;3.10;1.80;;;21.00;65.30;;;;;;214986;1297;22609;-45
2022/09/21 17:18:10;;;;;;;4.10;1.90;;;21.00;65.30;;;;;;215084;1300;22652;-47
2022/09/21 17:23:17;;;;;;;2.60;1.80;;;20.90;65.20;;;;;;214804;1300;24731;-46
2022/09/21 17:28:26;;;;;;;2.70;1.60;;;20.90;65.10;;;;;;215189;1299;23343;-47
2022/09/21 17:33:34;;;;;;;2.60;1.70;;;20.90;65.10;;;;;;214715;1299;26494;-48
2022/09/21 17:38:38;;;;;;;2.40;1.50;;;20.90;65.50;;;;;;214998;1299;22582;-46
2022/09/21 17:43:58;;;;;;;4.50;2.00;;;20.90;65.20;;;;;;214708;1299;24383;-45
2022/09/21 17:49:03;;;;;;;2.60;1.80;;;20.90;65.10;;;;;;214720;1299;22649;-46
2022/09/21 17:54:11;;;;;;;2.00;1.40;;;20.80;65.10;;;;;;214831;1300;25286;-46
2022/09/21 17:59:32;;;;;;;2.60;1.80;;;20.80;65.10;;;;;;214994;1300;22617;-46
2022/09/21 18:04:39;;;;;;;3.40;2.10;;;20.80;65.10;;;;;;214720;1299;24348;-45
2022/09/21 18:09:45;;;;;;;2.80;1.50;;;20.80;65.10;;;;;;215174;1297;24265;-47
2022/09/21 18:15:14;;;;;;;3.80;2.00;;;20.80;65.20;;;;;;215214;1300;22657;-48
2022/09/21 18:20:34;;;;;;;5.00;2.00;;;20.80;65.10;;;;;;215225;1297;25286;-48
2022/09/21 18:25:52;;;;;;;2.50;1.50;;;20.80;65.30;;;;;;214898;1297;22615;-46
2022/09/21 18:31:31;;;;;;;2.70;1.60;;;20.70;65.10;;;;;;215036;1297;24331;-47
2022/09/21 18:37:04;;;;;;;2.60;1.80;;;20.70;65.20;;;;;;215458;1300;22572;-49
2022/09/21 18:43:06;;;;;;;4.00;1.80;;;20.70;65.10;;;;;;215045;1301;25283;-49
2022/09/21 18:48:21;;;;;;;3.50;2.00;;;20.70;65.30;;;;;;214842;1300;22594;-47
2022/09/21 18:53:46;;;;;;;3.10;1.90;;;20.70;65.30;;;;;;215199;1297;22595;-46
2022/09/21 18:58:57;;;;;;;2.80;1.70;;;20.60;65.20;;;;;;214827;1299;22669;-46
2022/09/21 19:04:01;;;;;;;2.60;1.80;;;20.60;65.10;;;;;;214831;1297;22735;-46
2022/09/21 19:09:28;;;;;;;2.60;1.60;;;20.60;65.10;;;;;;215335;1300;22573;-50
2022/09/21 19:14:58;;;;;;;2.50;1.70;;;20.60;65.20;;;;;;215474;1296;22602;-46
2022/09/21 19:20:22;;;;;;;;;;;20.60;65.20;;;;;;215284;1296;25435;-48
2022/09/21 19:25:45;;;;;;;3.30;2.00;;;20.50;65.30;;;;;;215210;1299;25405;-47
2022/09/21 19:31:01;;;;;;;3.10;1.80;;;20.60;65.00;;;;;;215115;1300;22663;-47
2022/09/21 19:36:09;;;;;;;7.10;2.50;;;20.50;65.00;;;;;;214983;1299;23106;-50
2022/09/21 19:41:42;;;;;;;7.00;2.30;;;20.50;64.80;;;;;;214924;1299;22616;-52
2022/09/21 19:46:59;;;;;;;8.60;1.90;;;20.60;65.00;;;;;;214662;1300;22573;-49
2022/09/21 19:52:04;;;;;;;10.30;2.50;;;20.60;66.60;;;;;;214745;1296;26286;-50
2022/09/21 20:03:18;;;;;;;9.60;2.00;;;20.70;67.10;;;;;;214944;1296;22642;-51
2022/09/21 20:09:01;;;;;;;6.70;2.20;;;20.70;67.40;;;;;;214882;1299;22584;-49
2022/09/21 20:14:39;;;;;;;6.50;1.90;;;20.70;66.90;;;;;;215156;1297;24244;-51
2022/09/21 20:19:51;;;;;;;8.80;2.20;;;20.80;67.30;;;;;;214942;1297;22551;-52
2022/09/21 20:24:58;;;;;;;4.40;2.30;;;20.70;67.20;;;;;;214776;1297;22661;-52
2022/09/21 20:30:12;;;;;;;6.50;2.00;;;21.10;66.50;;;;;;214766;1296;22579;-53
2022/09/21 20:35:24;;;;;;;6.00;2.00;;;21.10;66.10;;;;;;214893;1299;22582;-54
2022/09/21 20:40:28;;;;;;;8.10;2.40;;;21.00;66.30;;;;;;214770;1297;25703;-49
2022/09/21 20:45:38;;;;;;;4.80;1.60;;;21.20;66.20;;;;;;214873;1296;24746;-50
2022/09/21 20:50:49;;;;;;;5.50;1.90;;;21.30;65.70;;;;;;215057;1296;22730;-53
2022/09/21 20:55:55;;;;;;;8.50;2.00;;;21.40;65.60;;;;;;215063;1296;22581;-51
2022/09/21 21:01:35;;;;;;;13.10;2.30;;;21.40;65.60;;;;;;214771;1298;24240;-50
2022/09/21 21:07:19;;;;;;;12.50;2.00;;;21.50;67.80;;;;;;214492;1296;24325;-51
2022/09/21 21:12:24;;;;;;;8.00;2.30;;;21.60;67.80;;;;;;214944;1296;24435;-51
2022/09/21 21:17:28;;;;;;;8.30;2.40;;;21.60;67.50;;;;;;214634;1297;22693;-50
2022/09/21 21:22:35;;;;;;;8.50;2.60;;;21.60;67.50;;;;;;214766;1297;25292;-50
2022/09/21 21:27:41;;;;;;;7.20;2.10;;;21.60;67.40;;;;;;214903;1299;23413;-51
2022/09/21 21:32:45;;;;;;;5.10;2.30;;;21.60;67.40;;;;;;214909;1297;23977;-50
2022/09/21 21:37:49;;;;;;;7.40;2.70;;;21.70;67.50;;;;;;214798;1296;22582;-51
2022/09/21 21:42:55;;;;;;;5.40;2.30;;;21.70;67.30;;;;;;214683;1299;22618;-51
2022/09/21 21:48:04;;;;;;;8.10;3.00;;;21.70;67.50;;;;;;214884;1296;22628;-52
2022/09/21 21:53:10;;;;;;;10.20;2.80;;;21.70;67.50;;;;;;214973;1296;22612;-52
2022/09/21 21:58:13;;;;;;;13.20;3.10;;;21.80;67.30;;;;;;214635;1297;22595;-54
2022/09/21 22:03:23;;;;;;;6.60;2.70;;;21.70;67.60;;;;;;214854;1299;22868;-49
2022/09/21 22:08:30;;;;;;;7.80;2.20;;;21.80;67.40;;;;;;214857;1296;24350;-48
2022/09/21 22:13:47;;;;;;;8.70;2.60;;;21.80;67.20;;;;;;214886;1299;24734;-49
2022/09/21 22:18:58;;;;;;;8.10;2.50;;;21.80;67.00;;;;;;214804;1300;22816;-49
2022/09/21 22:24:14;;;;;;;6.80;3.20;;;21.90;67.10;;;;;;214673;1296;22644;-52
2022/09/21 22:29:17;;;;;;;7.60;2.90;;;21.90;66.90;;;;;;215023;1296;25358;-49
2022/09/21 22:34:21;;;;;;;8.70;3.50;;;21.90;67.80;;;;;;214746;1297;24311;-50
2022/09/21 22:39:24;;;;;;;5.50;2.80;;;21.80;69.20;;;;;;214883;1296;24077;-50
2022/09/21 22:44:28;;;;;;;10.40;3.30;;;21.90;69.50;;;;;;214570;1299;22584;-52
2022/09/21 22:49:32;;;;;;;14.40;3.70;;;22.00;69.20;;;;;;214731;1297;23261;-46
2022/09/21 22:54:35;;;;;;;12.40;3.10;;;22.00;69.60;;;;;;215108;1297;25289;-51
2022/09/21 22:59:39;;;;;;;11.70;3.40;;;22.00;69.30;;;;;;214883;1297;22633;-49
2022/09/21 23:04:44;;;;;;;7.20;2.80;;;22.00;69.40;;;;;;215069;1296;22811;-50
2022/09/21 23:09:48;;;;;;;9.00;3.00;;;22.00;69.00;;;;;;214839;1297;22772;-50
2022/09/21 23:14:51;;;;;;;9.40;3.00;;;22.00;68.80;;;;;;214964;1297;24284;-51
2022/09/21 23:19:55;;;;;;;10.00;3.40;;;21.90;68.70;;;;;;214868;1297;22571;-51
2022/09/21 23:24:59;;;;;;;6.00;2.70;;;21.90;68.50;;;;;;214951;1297;25284;-49
2022/09/21 23:30:03;;;;;;;8.90;2.90;;;21.90;68.00;;;;;;214975;1297;22898;-52
2022/09/21 23:35:08;;;;;;;6.10;2.60;;;21.80;68.60;;;;;;215003;1297;22644;-48
2022/09/21 23:40:12;;;;;;;6.90;3.00;;;21.90;68.30;;;;;;215269;1297;24352;-48
2022/09/21 23:45:22;;;;;;;7.20;3.10;;;21.90;68.60;;;;;;214774;1297;22599;-51
2022/09/21 23:50:28;;;;;;;10.20;3.00;;;21.80;68.20;;;;;;214953;1297;24353;-45
2022/09/21 23:55:32;;;;;;;7.10;2.80;;;21.80;68.20;;;;;;214708;1297;25213;-50
